sensor_id;sensor_type;location;lat;lon;timestamp;temperature;humidity
39925;DHT22;25592;49.986;11.618;2024-02-15T00:01:27;10.40;99.90
39925;DHT22;25592;49.986;11.618;2024-02-15T00:04:12;10.40;99.90
39925;DHT22;25592;49.986;11.618;2024-02-15T00:06:58;10.40;99.90
39925;DHT22;25592;49.986;11.618;2024-02-15T00:09:44;10.40;99.90
39925;DHT22;25592;49.986;11.618;2024-02-15T00:12:32;10.40;99.90
39925;DHT22;25592;49.986;11.618;2024-02-15T00:15:18;10.40;99.90
39925;DHT22;25592;49.986;11.618;2024-02-15T00:18:04;10.50;99.90
39925;DHT22;25592;49.986;11.618;2024-02-15T00:20:50;10.40;99.90
39925;DHT22;25592;49.986;11.618;2024-02-15T00:23:35;10.40;99.90
39925;DHT22;25592;49.986;11.618;2024-02-15T00:26:21;10.50;99.90
39925;DHT22;25592;49.986;11.618;2024-02-15T00:29:07;10.50;99.90
39925;DHT22;25592;49.986;11.618;2024-02-15T00:31:53;10.50;99.90
39925;DHT22;25592;49.986;11.618;2024-02-15T00:34:38;10.50;99.90
39925;DHT22;25592;49.986;11.618;2024-02-15T00:37:24;10.50;99.90
39925;DHT22;25592;49.986;11.618;2024-02-15T00:40:10;10.50;99.90
39925;DHT22;25592;49.986;11.618;2024-02-15T00:42:55;10.50;99.90
39925;DHT22;25592;49.986;11.618;2024-02-15T00:45:41;10.50;99.90
39925;DHT22;25592;49.986;11.618;2024-02-15T00:48:26;10.50;99.90
39925;DHT22;25592;49.986;11.618;2024-02-15T00:51:14;10.50;99.90
39925;DHT22;25592;49.986;11.618;2024-02-15T00:54:00;10.50;99.90
39925;DHT22;25592;49.986;11.618;2024-02-15T00:56:46;10.50;99.90
39925;DHT22;25592;49.986;11.618;2024-02-15T00:59:31;10.50;99.90
39925;DHT22;25592;49.986;11.618;2024-02-15T01:02:21;10.50;99.90
39925;DHT22;25592;49.986;11.618;2024-02-15T01:05:07;10.50;99.90
39925;DHT22;25592;49.986;11.618;2024-02-15T01:07:52;10.50;99.90
39925;DHT22;25592;49.986;11.618;2024-02-15T01:10:40;10.50;99.90
39925;DHT22;25592;49.986;11.618;2024-02-15T01:13:26;10.50;99.90
39925;DHT22;25592;49.986;11.618;2024-02-15T01:16:11;10.50;99.90
39925;DHT22;25592;49.986;11.618;2024-02-15T01:18:57;10.50;99.90
39925;DHT22;25592;49.986;11.618;2024-02-15T01:21:42;10.50;99.90
39925;DHT22;25592;49.986;11.618;2024-02-15T01:24:29;10.60;99.90
39925;DHT22;25592;49.986;11.618;2024-02-15T01:27:15;10.60;99.90
39925;DHT22;25592;49.986;11.618;2024-02-15T01:30:01;10.50;99.90
39925;DHT22;25592;49.986;11.618;2024-02-15T01:32:46;10.60;99.90
39925;DHT22;25592;49.986;11.618;2024-02-15T01:35:32;10.60;99.90
39925;DHT22;25592;49.986;11.618;2024-02-15T01:38:17;10.60;99.90
39925;DHT22;25592;49.986;11.618;2024-02-15T01:41:03;10.60;99.90
39925;DHT22;25592;49.986;11.618;2024-02-15T01:43:48;10.60;99.90
39925;DHT22;25592;49.986;11.618;2024-02-15T01:46:35;10.60;99.90
39925;DHT22;25592;49.986;11.618;2024-02-15T01:49:21;10.60;99.90
39925;DHT22;25592;49.986;11.618;2024-02-15T01:52:08;10.60;99.90
39925;DHT22;25592;49.986;11.618;2024-02-15T01:54:54;10.60;99.90
39925;DHT22;25592;49.986;11.618;2024-02-15T01:57:40;10.60;99.90
39925;DHT22;25592;49.986;11.618;2024-02-15T02:00:29;10.60;99.90
39925;DHT22;25592;49.986;11.618;2024-02-15T02:03:16;10.60;99.90
39925;DHT22;25592;49.986;11.618;2024-02-15T02:06:02;10.60;99.90
39925;DHT22;25592;49.986;11.618;2024-02-15T02:08:48;10.60;99.90
39925;DHT22;25592;49.986;11.618;2024-02-15T02:11:34;10.60;99.90
39925;DHT22;25592;49.986;11.618;2024-02-15T02:14:19;10.60;99.90
39925;DHT22;25592;49.986;11.618;2024-02-15T02:17:15;10.70;99.90
39925;DHT22;25592;49.986;11.618;2024-02-15T02:20:01;10.60;99.90
39925;DHT22;25592;49.986;11.618;2024-02-15T02:22:53;10.60;99.90
39925;DHT22;25592;49.986;11.618;2024-02-15T02:25:42;10.60;99.90
39925;DHT22;25592;49.986;11.618;2024-02-15T02:28:28;10.60;99.90
39925;DHT22;25592;49.986;11.618;2024-02-15T02:31:14;10.50;99.90
39925;DHT22;25592;49.986;11.618;2024-02-15T02:33:59;10.60;99.90
39925;DHT22;25592;49.986;11.618;2024-02-15T02:36:45;10.60;99.90
39925;DHT22;25592;49.986;11.618;2024-02-15T02:39:32;10.60;99.90
39925;DHT22;25592;49.986;11.618;2024-02-15T02:42:18;10.60;99.90
39925;DHT22;25592;49.986;11.618;2024-02-15T02:45:04;10.60;99.90
39925;DHT22;25592;49.986;11.618;2024-02-15T02:47:51;10.60;99.90
39925;DHT22;25592;49.986;11.618;2024-02-15T02:50:38;10.60;99.90
39925;DHT22;25592;49.986;11.618;2024-02-15T02:53:24;10.60;99.90
39925;DHT22;25592;49.986;11.618;2024-02-15T02:56:09;10.60;99.90
39925;DHT22;25592;49.986;11.618;2024-02-15T02:58:55;10.60;99.90
39925;DHT22;25592;49.986;11.618;2024-02-15T03:01:40;10.70;99.90
39925;DHT22;25592;49.986;11.618;2024-02-15T03:04:27;10.70;99.90
39925;DHT22;25592;49.986;11.618;2024-02-15T03:07:13;10.60;99.90
39925;DHT22;25592;49.986;11.618;2024-02-15T03:10:02;10.70;99.90
39925;DHT22;25592;49.986;11.618;2024-02-15T03:12:53;10.70;99.90
39925;DHT22;25592;49.986;11.618;2024-02-15T03:15:39;10.70;99.90
39925;DHT22;25592;49.986;11.618;2024-02-15T03:18:26;10.70;99.90
39925;DHT22;25592;49.986;11.618;2024-02-15T03:21:12;10.70;99.90
39925;DHT22;25592;49.986;11.618;2024-02-15T03:23:57;10.70;99.90
39925;DHT22;25592;49.986;11.618;2024-02-15T03:26:43;10.70;99.90
39925;DHT22;25592;49.986;11.618;2024-02-15T03:29:29;10.70;99.90
39925;DHT22;25592;49.986;11.618;2024-02-15T03:32:15;10.70;99.90
39925;DHT22;25592;49.986;11.618;2024-02-15T03:35:00;10.70;99.90
39925;DHT22;25592;49.986;11.618;2024-02-15T03:37:46;10.70;99.90
39925;DHT22;25592;49.986;11.618;2024-02-15T03:40:31;10.70;99.90
39925;DHT22;25592;49.986;11.618;2024-02-15T03:43:17;10.70;99.90
39925;DHT22;25592;49.986;11.618;2024-02-15T03:46:02;10.70;99.90
39925;DHT22;25592;49.986;11.618;2024-02-15T03:48:48;10.70;99.90
39925;DHT22;25592;49.986;11.618;2024-02-15T03:51:36;10.60;99.90
39925;DHT22;25592;49.986;11.618;2024-02-15T03:54:22;10.60;99.90
39925;DHT22;25592;49.986;11.618;2024-02-15T03:57:09;10.70;99.90
39925;DHT22;25592;49.986;11.618;2024-02-15T03:59:56;10.70;99.90
39925;DHT22;25592;49.986;11.618;2024-02-15T04:02:42;10.70;99.90
39925;DHT22;25592;49.986;11.618;2024-02-15T04:05:28;10.70;99.90
39925;DHT22;25592;49.986;11.618;2024-02-15T04:08:14;10.60;99.90
39925;DHT22;25592;49.986;11.618;2024-02-15T04:11:00;10.70;99.90
39925;DHT22;25592;49.986;11.618;2024-02-15T04:13:46;10.70;99.90
39925;DHT22;25592;49.986;11.618;2024-02-15T04:16:31;10.70;99.90
39925;DHT22;25592;49.986;11.618;2024-02-15T04:19:22;10.70;99.90
39925;DHT22;25592;49.986;11.618;2024-02-15T04:22:07;10.70;99.90
39925;DHT22;25592;49.986;11.618;2024-02-15T04:24:53;10.70;99.90
39925;DHT22;25592;49.986;11.618;2024-02-15T04:27:38;10.50;99.90
39925;DHT22;25592;49.986;11.618;2024-02-15T04:30:25;10.70;99.90
39925;DHT22;25592;49.986;11.618;2024-02-15T04:33:10;10.70;99.90
39925;DHT22;25592;49.986;11.618;2024-02-15T04:35:57;10.70;99.90
39925;DHT22;25592;49.986;11.618;2024-02-15T04:38:43;10.70;99.90
39925;DHT22;25592;49.986;11.618;2024-02-15T04:41:29;10.70;99.90
39925;DHT22;25592;49.986;11.618;2024-02-15T04:44:15;10.70;99.90
39925;DHT22;25592;49.986;11.618;2024-02-15T04:47:02;10.80;99.90
39925;DHT22;25592;49.986;11.618;2024-02-15T04:49:49;10.70;99.90
39925;DHT22;25592;49.986;11.618;2024-02-15T04:52:35;10.80;99.90
39925;DHT22;25592;49.986;11.618;2024-02-15T04:55:20;10.70;99.90
39925;DHT22;25592;49.986;11.618;2024-02-15T04:58:08;10.70;99.90
39925;DHT22;25592;49.986;11.618;2024-02-15T05:00:55;10.70;99.90
39925;DHT22;25592;49.986;11.618;2024-02-15T05:03:45;10.70;99.90
39925;DHT22;25592;49.986;11.618;2024-02-15T05:06:32;10.70;99.90
39925;DHT22;25592;49.986;11.618;2024-02-15T05:09:17;10.70;99.90
39925;DHT22;25592;49.986;11.618;2024-02-15T05:12:04;10.80;99.90
39925;DHT22;25592;49.986;11.618;2024-02-15T05:14:51;10.80;99.90
39925;DHT22;25592;49.986;11.618;2024-02-15T05:17:38;10.70;99.90
39925;DHT22;25592;49.986;11.618;2024-02-15T05:20:26;10.80;99.90
39925;DHT22;25592;49.986;11.618;2024-02-15T05:23:12;10.80;99.90
39925;DHT22;25592;49.986;11.618;2024-02-15T05:25:57;10.80;99.90
39925;DHT22;25592;49.986;11.618;2024-02-15T05:28:43;10.80;99.90
39925;DHT22;25592;49.986;11.618;2024-02-15T05:31:28;10.80;99.90
39925;DHT22;25592;49.986;11.618;2024-02-15T05:34:14;10.80;99.90
39925;DHT22;25592;49.986;11.618;2024-02-15T05:36:59;10.80;99.90
39925;DHT22;25592;49.986;11.618;2024-02-15T05:39:45;10.70;99.90
39925;DHT22;25592;49.986;11.618;2024-02-15T05:42:30;10.80;99.90
39925;DHT22;25592;49.986;11.618;2024-02-15T05:48:10;10.80;99.90
39925;DHT22;25592;49.986;11.618;2024-02-15T05:50:57;10.70;99.90
39925;DHT22;25592;49.986;11.618;2024-02-15T05:53:45;10.80;99.90
39925;DHT22;25592;49.986;11.618;2024-02-15T05:56:30;10.80;99.90
39925;DHT22;25592;49.986;11.618;2024-02-15T05:59:16;10.80;99.90
39925;DHT22;25592;49.986;11.618;2024-02-15T06:02:01;10.80;99.90
39925;DHT22;25592;49.986;11.618;2024-02-15T06:04:48;10.80;99.90
39925;DHT22;25592;49.986;11.618;2024-02-15T06:07:33;10.70;99.90
39925;DHT22;25592;49.986;11.618;2024-02-15T06:10:19;10.70;99.90
39925;DHT22;25592;49.986;11.618;2024-02-15T06:13:04;10.70;99.90
39925;DHT22;25592;49.986;11.618;2024-02-15T06:15:50;10.70;99.90
39925;DHT22;25592;49.986;11.618;2024-02-15T06:18:39;10.70;99.90
39925;DHT22;25592;49.986;11.618;2024-02-15T06:21:24;10.80;99.90
39925;DHT22;25592;49.986;11.618;2024-02-15T06:24:11;10.70;99.90
39925;DHT22;25592;49.986;11.618;2024-02-15T06:26:56;10.70;99.90
39925;DHT22;25592;49.986;11.618;2024-02-15T06:29:45;10.70;99.90
39925;DHT22;25592;49.986;11.618;2024-02-15T06:32:49;10.80;99.90
39925;DHT22;25592;49.986;11.618;2024-02-15T06:35:53;10.70;99.90
39925;DHT22;25592;49.986;11.618;2024-02-15T06:38:57;10.70;99.90
39925;DHT22;25592;49.986;11.618;2024-02-15T06:42:01;10.80;99.90
39925;DHT22;25592;49.986;11.618;2024-02-15T06:44:48;10.80;99.90
39925;DHT22;25592;49.986;11.618;2024-02-15T06:47:35;10.80;99.90
39925;DHT22;25592;49.986;11.618;2024-02-15T06:50:20;10.80;99.90
39925;DHT22;25592;49.986;11.618;2024-02-15T06:53:06;10.80;99.90
39925;DHT22;25592;49.986;11.618;2024-02-15T06:55:51;10.80;99.90
39925;DHT22;25592;49.986;11.618;2024-02-15T06:58:37;10.90;99.90
39925;DHT22;25592;49.986;11.618;2024-02-15T07:01:24;10.90;99.90
39925;DHT22;25592;49.986;11.618;2024-02-15T07:04:10;10.90;99.90
39925;DHT22;25592;49.986;11.618;2024-02-15T07:06:56;10.80;99.90
39925;DHT22;25592;49.986;11.618;2024-02-15T07:09:42;10.80;99.90
39925;DHT22;25592;49.986;11.618;2024-02-15T07:12:27;10.80;99.90
39925;DHT22;25592;49.986;11.618;2024-02-15T07:15:13;10.80;99.90
39925;DHT22;25592;49.986;11.618;2024-02-15T07:17:59;10.80;99.90
39925;DHT22;25592;49.986;11.618;2024-02-15T07:20:45;10.90;99.90
39925;DHT22;25592;49.986;11.618;2024-02-15T07:23:31;10.90;99.90
39925;DHT22;25592;49.986;11.618;2024-02-15T07:26:21;10.90;99.90
39925;DHT22;25592;49.986;11.618;2024-02-15T07:29:09;11.00;99.90
39925;DHT22;25592;49.986;11.618;2024-02-15T07:31:56;11.00;99.90
39925;DHT22;25592;49.986;11.618;2024-02-15T07:34:42;11.00;99.90
39925;DHT22;25592;49.986;11.618;2024-02-15T07:37:29;11.00;99.90
39925;DHT22;25592;49.986;11.618;2024-02-15T07:40:14;11.00;99.90
39925;DHT22;25592;49.986;11.618;2024-02-15T07:43:00;11.10;99.90
39925;DHT22;25592;49.986;11.618;2024-02-15T07:45:45;11.10;99.90
39925;DHT22;25592;49.986;11.618;2024-02-15T07:48:33;11.20;99.90
39925;DHT22;25592;49.986;11.618;2024-02-15T07:51:19;11.10;99.90
39925;DHT22;25592;49.986;11.618;2024-02-15T07:54:05;11.10;99.90
39925;DHT22;25592;49.986;11.618;2024-02-15T07:56:51;11.10;99.90
39925;DHT22;25592;49.986;11.618;2024-02-15T07:59:37;11.10;99.90
39925;DHT22;25592;49.986;11.618;2024-02-15T08:02:24;11.10;99.90
39925;DHT22;25592;49.986;11.618;2024-02-15T08:05:13;11.20;99.90
39925;DHT22;25592;49.986;11.618;2024-02-15T08:07:59;11.20;99.90
39925;DHT22;25592;49.986;11.618;2024-02-15T08:10:45;11.20;99.90
39925;DHT22;25592;49.986;11.618;2024-02-15T08:13:31;11.20;99.90
39925;DHT22;25592;49.986;11.618;2024-02-15T08:16:18;11.30;99.90
39925;DHT22;25592;49.986;11.618;2024-02-15T08:19:03;11.40;99.90
39925;DHT22;25592;49.986;11.618;2024-02-15T08:21:50;11.30;99.90
39925;DHT22;25592;49.986;11.618;2024-02-15T08:24:36;11.20;99.90
39925;DHT22;25592;49.986;11.618;2024-02-15T08:27:22;11.30;99.90
39925;DHT22;25592;49.986;11.618;2024-02-15T08:30:12;11.30;99.90
39925;DHT22;25592;49.986;11.618;2024-02-15T08:32:58;11.50;99.90
39925;DHT22;25592;49.986;11.618;2024-02-15T08:35:44;11.50;99.90
39925;DHT22;25592;49.986;11.618;2024-02-15T08:38:29;11.60;99.90
39925;DHT22;25592;49.986;11.618;2024-02-15T08:41:15;11.60;99.90
39925;DHT22;25592;49.986;11.618;2024-02-15T08:44:00;11.60;99.90
39925;DHT22;25592;49.986;11.618;2024-02-15T08:46:46;11.70;99.90
39925;DHT22;25592;49.986;11.618;2024-02-15T08:49:34;11.70;99.90
39925;DHT22;25592;49.986;11.618;2024-02-15T08:52:19;11.70;99.90
39925;DHT22;25592;49.986;11.618;2024-02-15T08:55:09;11.80;99.90
39925;DHT22;25592;49.986;11.618;2024-02-15T08:57:54;11.80;99.90
39925;DHT22;25592;49.986;11.618;2024-02-15T09:00:40;11.90;99.90
39925;DHT22;25592;49.986;11.618;2024-02-15T09:03:30;11.80;99.90
39925;DHT22;25592;49.986;11.618;2024-02-15T09:06:16;11.70;99.90
39925;DHT22;25592;49.986;11.618;2024-02-15T09:09:01;11.80;99.90
39925;DHT22;25592;49.986;11.618;2024-02-15T09:11:49;11.80;99.90
39925;DHT22;25592;49.986;11.618;2024-02-15T09:14:35;11.90;99.90
39925;DHT22;25592;49.986;11.618;2024-02-15T09:17:21;11.90;99.90
39925;DHT22;25592;49.986;11.618;2024-02-15T09:20:12;11.80;99.90
39925;DHT22;25592;49.986;11.618;2024-02-15T09:23:01;12.00;99.90
39925;DHT22;25592;49.986;11.618;2024-02-15T09:25:53;12.10;99.90
39925;DHT22;25592;49.986;11.618;2024-02-15T09:28:40;12.10;99.90
39925;DHT22;25592;49.986;11.618;2024-02-15T09:31:25;12.20;99.90
39925;DHT22;25592;49.986;11.618;2024-02-15T09:34:10;12.20;99.90
39925;DHT22;25592;49.986;11.618;2024-02-15T09:36:59;12.30;99.90
39925;DHT22;25592;49.986;11.618;2024-02-15T09:39:44;12.40;99.90
39925;DHT22;25592;49.986;11.618;2024-02-15T09:42:29;12.40;99.90
39925;DHT22;25592;49.986;11.618;2024-02-15T09:45:15;12.40;99.90
39925;DHT22;25592;49.986;11.618;2024-02-15T09:48:06;12.30;99.90
39925;DHT22;25592;49.986;11.618;2024-02-15T09:50:54;12.20;99.90
39925;DHT22;25592;49.986;11.618;2024-02-15T09:53:41;12.30;99.90
39925;DHT22;25592;49.986;11.618;2024-02-15T09:56:28;12.30;99.90
39925;DHT22;25592;49.986;11.618;2024-02-15T09:59:16;12.30;99.90
39925;DHT22;25592;49.986;11.618;2024-02-15T10:02:02;12.30;99.90
39925;DHT22;25592;49.986;11.618;2024-02-15T10:04:47;12.30;99.90
39925;DHT22;25592;49.986;11.618;2024-02-15T10:07:35;12.30;99.90
39925;DHT22;25592;49.986;11.618;2024-02-15T10:10:25;12.40;99.90
39925;DHT22;25592;49.986;11.618;2024-02-15T10:13:13;12.60;99.90
39925;DHT22;25592;49.986;11.618;2024-02-15T10:15:59;12.50;99.90
39925;DHT22;25592;49.986;11.618;2024-02-15T10:18:45;12.40;99.90
39925;DHT22;25592;49.986;11.618;2024-02-15T10:21:32;12.50;99.90
39925;DHT22;25592;49.986;11.618;2024-02-15T10:24:22;12.50;99.90
39925;DHT22;25592;49.986;11.618;2024-02-15T10:27:10;12.50;99.90
39925;DHT22;25592;49.986;11.618;2024-02-15T10:30:14;12.40;99.90
39925;DHT22;25592;49.986;11.618;2024-02-15T10:33:01;12.40;99.90
39925;DHT22;25592;49.986;11.618;2024-02-15T10:35:47;12.50;99.90
39925;DHT22;25592;49.986;11.618;2024-02-15T10:38:33;12.60;99.90
39925;DHT22;25592;49.986;11.618;2024-02-15T10:41:19;12.70;99.90
39925;DHT22;25592;49.986;11.618;2024-02-15T10:44:06;12.70;99.90
39925;DHT22;25592;49.986;11.618;2024-02-15T10:46:53;12.80;99.90
39925;DHT22;25592;49.986;11.618;2024-02-15T10:49:38;13.00;99.90
39925;DHT22;25592;49.986;11.618;2024-02-15T10:52:31;13.20;99.90
39925;DHT22;25592;49.986;11.618;2024-02-15T10:55:44;13.20;99.90
39925;DHT22;25592;49.986;11.618;2024-02-15T10:58:32;13.40;99.90
39925;DHT22;25592;49.986;11.618;2024-02-15T11:01:22;13.40;99.90
39925;DHT22;25592;49.986;11.618;2024-02-15T11:04:09;13.50;99.90
39925;DHT22;25592;49.986;11.618;2024-02-15T11:06:58;13.60;99.90
39925;DHT22;25592;49.986;11.618;2024-02-15T11:09:44;13.50;99.90
39925;DHT22;25592;49.986;11.618;2024-02-15T11:12:30;13.50;99.90
39925;DHT22;25592;49.986;11.618;2024-02-15T11:18:43;13.50;99.90
39925;DHT22;25592;49.986;11.618;2024-02-15T11:21:53;13.60;99.90
39925;DHT22;25592;49.986;11.618;2024-02-15T11:24:50;13.60;99.90
39925;DHT22;25592;49.986;11.618;2024-02-15T11:27:37;13.70;99.90
39925;DHT22;25592;49.986;11.618;2024-02-15T11:30:33;13.80;99.90
39925;DHT22;25592;49.986;11.618;2024-02-15T11:33:36;13.70;99.90
39925;DHT22;25592;49.986;11.618;2024-02-15T11:36:30;13.70;99.90
39925;DHT22;25592;49.986;11.618;2024-02-15T11:39:41;13.70;99.90
39925;DHT22;25592;49.986;11.618;2024-02-15T11:42:31;13.80;99.90
39925;DHT22;25592;49.986;11.618;2024-02-15T11:45:16;13.90;99.90
39925;DHT22;25592;49.986;11.618;2024-02-15T11:48:08;13.90;99.90
39925;DHT22;25592;49.986;11.618;2024-02-15T11:50:56;14.00;99.90
39925;DHT22;25592;49.986;11.618;2024-02-15T11:53:44;14.00;99.90
39925;DHT22;25592;49.986;11.618;2024-02-15T11:56:30;14.00;99.90
39925;DHT22;25592;49.986;11.618;2024-02-15T11:59:18;14.00;99.90
39925;DHT22;25592;49.986;11.618;2024-02-15T12:02:14;14.00;99.90
39925;DHT22;25592;49.986;11.618;2024-02-15T12:05:22;14.00;99.90
39925;DHT22;25592;49.986;11.618;2024-02-15T12:08:26;14.10;99.90
39925;DHT22;25592;49.986;11.618;2024-02-15T12:11:30;14.10;99.90
39925;DHT22;25592;49.986;11.618;2024-02-15T12:14:34;13.90;99.90
39925;DHT22;25592;49.986;11.618;2024-02-15T12:17:39;13.90;99.90
39925;DHT22;25592;49.986;11.618;2024-02-15T12:20:44;13.90;99.90
39925;DHT22;25592;49.986;11.618;2024-02-15T12:23:30;14.10;99.90
39925;DHT22;25592;49.986;11.618;2024-02-15T12:26:21;14.10;99.90
39925;DHT22;25592;49.986;11.618;2024-02-15T12:29:08;14.00;99.90
39925;DHT22;25592;49.986;11.618;2024-02-15T12:31:55;14.20;99.90
39925;DHT22;25592;49.986;11.618;2024-02-15T12:34:41;14.30;99.90
39925;DHT22;25592;49.986;11.618;2024-02-15T12:37:30;14.20;99.90
39925;DHT22;25592;49.986;11.618;2024-02-15T12:40:20;14.30;99.90
39925;DHT22;25592;49.986;11.618;2024-02-15T12:43:08;14.20;99.90
39925;DHT22;25592;49.986;11.618;2024-02-15T12:45:54;14.30;99.90
39925;DHT22;25592;49.986;11.618;2024-02-15T12:48:42;14.10;99.90
39925;DHT22;25592;49.986;11.618;2024-02-15T12:51:30;14.10;99.90
39925;DHT22;25592;49.986;11.618;2024-02-15T12:54:20;14.00;99.90
39925;DHT22;25592;49.986;11.618;2024-02-15T12:57:09;14.00;99.90
39925;DHT22;25592;49.986;11.618;2024-02-15T12:59:59;14.10;99.90
39925;DHT22;25592;49.986;11.618;2024-02-15T13:02:46;14.10;99.90
39925;DHT22;25592;49.986;11.618;2024-02-15T13:05:35;14.00;99.90
39925;DHT22;25592;49.986;11.618;2024-02-15T13:08:24;14.10;99.90
39925;DHT22;25592;49.986;11.618;2024-02-15T13:11:10;14.10;99.90
39925;DHT22;25592;49.986;11.618;2024-02-15T13:13:58;14.00;99.90
39925;DHT22;25592;49.986;11.618;2024-02-15T13:16:43;14.10;99.90
39925;DHT22;25592;49.986;11.618;2024-02-15T13:19:31;14.20;99.90
39925;DHT22;25592;49.986;11.618;2024-02-15T13:22:16;14.20;99.90
39925;DHT22;25592;49.986;11.618;2024-02-15T13:25:04;14.30;99.90
39925;DHT22;25592;49.986;11.618;2024-02-15T13:27:49;14.10;99.90
39925;DHT22;25592;49.986;11.618;2024-02-15T13:30:37;14.10;99.90
39925;DHT22;25592;49.986;11.618;2024-02-15T13:33:22;14.10;99.90
39925;DHT22;25592;49.986;11.618;2024-02-15T13:36:08;14.20;99.90
39925;DHT22;25592;49.986;11.618;2024-02-15T13:38:56;14.10;99.90
39925;DHT22;25592;49.986;11.618;2024-02-15T13:41:42;14.20;99.90
39925;DHT22;25592;49.986;11.618;2024-02-15T13:44:29;14.20;99.90
39925;DHT22;25592;49.986;11.618;2024-02-15T13:47:15;14.10;99.90
39925;DHT22;25592;49.986;11.618;2024-02-15T13:50:01;14.10;99.90
39925;DHT22;25592;49.986;11.618;2024-02-15T13:52:48;14.10;99.90
39925;DHT22;25592;49.986;11.618;2024-02-15T13:55:33;14.10;99.90
39925;DHT22;25592;49.986;11.618;2024-02-15T13:58:19;14.20;99.90
39925;DHT22;25592;49.986;11.618;2024-02-15T14:01:05;14.20;99.90
39925;DHT22;25592;49.986;11.618;2024-02-15T14:03:51;14.10;99.90
39925;DHT22;25592;49.986;11.618;2024-02-15T14:06:36;14.20;99.90
39925;DHT22;25592;49.986;11.618;2024-02-15T14:09:22;14.30;99.90
39925;DHT22;25592;49.986;11.618;2024-02-15T14:12:11;14.30;99.90
39925;DHT22;25592;49.986;11.618;2024-02-15T14:14:57;14.30;99.90
39925;DHT22;25592;49.986;11.618;2024-02-15T14:17:43;14.30;99.90
39925;DHT22;25592;49.986;11.618;2024-02-15T14:20:32;14.30;99.90
39925;DHT22;25592;49.986;11.618;2024-02-15T14:23:17;14.30;99.90
39925;DHT22;25592;49.986;11.618;2024-02-15T14:26:03;14.30;99.90
39925;DHT22;25592;49.986;11.618;2024-02-15T14:28:49;14.30;99.90
39925;DHT22;25592;49.986;11.618;2024-02-15T14:31:34;14.30;99.90
39925;DHT22;25592;49.986;11.618;2024-02-15T14:34:39;14.40;99.90
39925;DHT22;25592;49.986;11.618;2024-02-15T14:37:26;14.30;99.90
39925;DHT22;25592;49.986;11.618;2024-02-15T14:40:12;14.20;99.90
39925;DHT22;25592;49.986;11.618;2024-02-15T14:43:03;14.20;99.90
39925;DHT22;25592;49.986;11.618;2024-02-15T14:45:52;14.10;99.90
39925;DHT22;25592;49.986;11.618;2024-02-15T14:48:38;14.20;99.90
39925;DHT22;25592;49.986;11.618;2024-02-15T14:51:29;14.10;99.90
39925;DHT22;25592;49.986;11.618;2024-02-15T14:54:16;14.20;99.90
39925;DHT22;25592;49.986;11.618;2024-02-15T14:57:08;14.20;99.90
39925;DHT22;25592;49.986;11.618;2024-02-15T14:59:54;14.20;99.90
39925;DHT22;25592;49.986;11.618;2024-02-15T15:02:40;14.20;99.90
39925;DHT22;25592;49.986;11.618;2024-02-15T15:08:33;14.10;99.90
39925;DHT22;25592;49.986;11.618;2024-02-15T15:11:37;14.20;99.90
39925;DHT22;25592;49.986;11.618;2024-02-15T15:14:42;14.20;99.90
39925;DHT22;25592;49.986;11.618;2024-02-15T15:17:31;14.20;99.90
39925;DHT22;25592;49.986;11.618;2024-02-15T15:20:17;14.10;99.90
39925;DHT22;25592;49.986;11.618;2024-02-15T15:23:04;14.10;99.90
39925;DHT22;25592;49.986;11.618;2024-02-15T15:25:51;14.10;99.90
39925;DHT22;25592;49.986;11.618;2024-02-15T15:28:38;14.10;99.90
39925;DHT22;25592;49.986;11.618;2024-02-15T15:31:23;14.20;99.90
39925;DHT22;25592;49.986;11.618;2024-02-15T15:34:09;14.40;99.90
39925;DHT22;25592;49.986;11.618;2024-02-15T15:36:55;14.70;99.90
39925;DHT22;25592;49.986;11.618;2024-02-15T15:39:42;14.80;99.90
39925;DHT22;25592;49.986;11.618;2024-02-15T15:42:27;14.90;99.90
39925;DHT22;25592;49.986;11.618;2024-02-15T15:45:12;14.90;99.90
39925;DHT22;25592;49.986;11.618;2024-02-15T15:47:58;14.90;99.90
39925;DHT22;25592;49.986;11.618;2024-02-15T15:50:46;14.80;99.90
39925;DHT22;25592;49.986;11.618;2024-02-15T15:53:40;14.60;99.90
39925;DHT22;25592;49.986;11.618;2024-02-15T15:56:26;14.50;99.90
39925;DHT22;25592;49.986;11.618;2024-02-15T15:59:11;14.50;99.90
39925;DHT22;25592;49.986;11.618;2024-02-15T16:01:56;14.50;99.90
39925;DHT22;25592;49.986;11.618;2024-02-15T16:04:43;14.40;99.90
39925;DHT22;25592;49.986;11.618;2024-02-15T16:07:29;14.30;99.90
39925;DHT22;25592;49.986;11.618;2024-02-15T16:10:15;14.20;99.90
39925;DHT22;25592;49.986;11.618;2024-02-15T16:13:00;14.20;99.90
39925;DHT22;25592;49.986;11.618;2024-02-15T16:15:46;14.10;99.90
39925;DHT22;25592;49.986;11.618;2024-02-15T16:18:31;14.00;99.90
39925;DHT22;25592;49.986;11.618;2024-02-15T16:21:18;14.00;99.90
39925;DHT22;25592;49.986;11.618;2024-02-15T16:24:04;13.90;99.90
39925;DHT22;25592;49.986;11.618;2024-02-15T16:26:50;13.80;99.90
39925;DHT22;25592;49.986;11.618;2024-02-15T16:29:39;13.80;99.90
39925;DHT22;25592;49.986;11.618;2024-02-15T16:32:24;13.70;99.90
39925;DHT22;25592;49.986;11.618;2024-02-15T16:35:10;13.60;99.90
39925;DHT22;25592;49.986;11.618;2024-02-15T16:37:57;13.60;99.90
39925;DHT22;25592;49.986;11.618;2024-02-15T16:40:42;13.50;99.90
39925;DHT22;25592;49.986;11.618;2024-02-15T16:43:28;13.40;99.90
39925;DHT22;25592;49.986;11.618;2024-02-15T16:46:14;13.40;99.90
39925;DHT22;25592;49.986;11.618;2024-02-15T16:49:00;13.40;99.90
39925;DHT22;25592;49.986;11.618;2024-02-15T16:51:45;13.30;99.90
39925;DHT22;25592;49.986;11.618;2024-02-15T16:54:31;13.30;99.90
39925;DHT22;25592;49.986;11.618;2024-02-15T16:57:16;13.20;99.90
39925;DHT22;25592;49.986;11.618;2024-02-15T17:00:02;13.30;99.90
39925;DHT22;25592;49.986;11.618;2024-02-15T17:02:52;13.20;99.90
39925;DHT22;25592;49.986;11.618;2024-02-15T17:05:38;13.20;99.90
39925;DHT22;25592;49.986;11.618;2024-02-15T17:08:24;13.10;99.90
39925;DHT22;25592;49.986;11.618;2024-02-15T17:11:09;13.10;99.90
39925;DHT22;25592;49.986;11.618;2024-02-15T17:13:55;13.10;99.90
39925;DHT22;25592;49.986;11.618;2024-02-15T17:16:42;13.10;99.90
39925;DHT22;25592;49.986;11.618;2024-02-15T17:19:27;13.00;99.90
39925;DHT22;25592;49.986;11.618;2024-02-15T17:22:13;13.00;99.90
39925;DHT22;25592;49.986;11.618;2024-02-15T17:24:59;13.00;99.90
39925;DHT22;25592;49.986;11.618;2024-02-15T17:27:50;13.00;99.90
39925;DHT22;25592;49.986;11.618;2024-02-15T17:30:35;12.90;99.90